< < Back
Terminal Aerodrome Forecast


Current Version              Previous Versions:   1  2  3  4  5  6  7  8  9  

Terminal Aerodrome Forecast

049
FTUS42 KFFC 201300 AAA
TAFATL
TAF AMD
KATL 201354Z 2014/2118 08010KT P6SM SCT040
      TEMPO 2014/2016 OVC025
     FM201600 08010G15KT P6SM SCT040
     FM210000 06006KT P6SM SCT250
     FM210900 32004KT 6SM BR SCT250
     FM211400 30008KT P6SM SKC=

Latest METAR

465
SAUS70 KWBC 201400 RRB
MTRATL
METAR KATL 201352Z 06011KT 10SM BKN014 BKN020 BKN035 21/17 A3017 RMK AO2
SLP208 T02060167


USA.gov is the U.S. government's official web portal to all federal, state and local government web resources and services.